sensor_id;sensor_type;location;lat;lon;timestamp;pressure;altitude;pressure_sealevel;temperature;humidity
43480;BME280;29067;35.492;-97.520;2022-12-20T00:01:34;97653.38;;;4.32;45.57
43480;BME280;29067;35.492;-97.520;2022-12-20T00:04:04;97661.34;;;3.92;46.47
43480;BME280;29067;35.492;-97.520;2022-12-20T00:06:34;97669.44;;;3.77;46.23
43480;BME280;29067;35.492;-97.520;2022-12-20T00:09:05;97680.03;;;4.20;45.94
43480;BME280;29067;35.492;-97.520;2022-12-20T00:11:35;97674.13;;;4.64;45.20
43480;BME280;29067;35.492;-97.520;2022-12-20T00:14:05;97681.77;;;3.63;46.59
43480;BME280;29067;35.492;-97.520;2022-12-20T00:16:34;97679.75;;;4.30;46.25
43480;BME280;29067;35.492;-97.520;2022-12-20T00:19:04;97680.52;;;3.61;47.03
43480;BME280;29067;35.492;-97.520;2022-12-20T00:21:34;97680.81;;;4.18;46.06
43480;BME280;29067;35.492;-97.520;2022-12-20T00:24:03;97692.46;;;2.23;48.44
43480;BME280;29067;35.492;-97.520;2022-12-20T00:26:33;97693.98;;;2.82;48.70
43480;BME280;29067;35.492;-97.520;2022-12-20T00:29:03;97693.41;;;3.25;46.80
43480;BME280;29067;35.492;-97.520;2022-12-20T00:31:31;97700.91;;;3.88;47.12
43480;BME280;29067;35.492;-97.520;2022-12-20T00:34:00;97702.91;;;3.23;47.10
43480;BME280;29067;35.492;-97.520;2022-12-20T00:36:29;97709.27;;;2.54;48.52
43480;BME280;29067;35.492;-97.520;2022-12-20T00:38:58;97712.28;;;2.75;48.57
43480;BME280;29067;35.492;-97.520;2022-12-20T00:41:29;97716.99;;;2.54;49.86
43480;BME280;29067;35.492;-97.520;2022-12-20T00:43:58;97715.70;;;3.60;48.41
43480;BME280;29067;35.492;-97.520;2022-12-20T00:46:26;97725.24;;;3.01;48.40
43480;BME280;29067;35.492;-97.520;2022-12-20T00:48:54;97740.16;;;1.60;51.99
43480;BME280;29067;35.492;-97.520;2022-12-20T00:51:25;97736.86;;;3.49;49.71
43480;BME280;29067;35.492;-97.520;2022-12-20T00:53:53;97737.77;;;3.20;48.35
43480;BME280;29067;35.492;-97.520;2022-12-20T00:56:23;97749.03;;;1.95;50.37
43480;BME280;29067;35.492;-97.520;2022-12-20T00:58:51;97757.91;;;2.58;49.56
43480;BME280;29067;35.492;-97.520;2022-12-20T01:01:27;97764.06;;;3.34;48.49
43480;BME280;29067;35.492;-97.520;2022-12-20T01:03:56;97771.57;;;2.22;50.65
43480;BME280;29067;35.492;-97.520;2022-12-20T01:06:25;97777.70;;;1.25;52.98
43480;BME280;29067;35.492;-97.520;2022-12-20T01:08:54;97783.46;;;0.78;53.58
43480;BME280;29067;35.492;-97.520;2022-12-20T01:11:24;97785.62;;;1.85;52.45
43480;BME280;29067;35.492;-97.520;2022-12-20T01:13:54;97794.34;;;0.87;52.76
43480;BME280;29067;35.492;-97.520;2022-12-20T01:16:25;97794.13;;;1.03;54.06
43480;BME280;29067;35.492;-97.520;2022-12-20T01:18:54;97796.35;;;3.02;51.13
43480;BME280;29067;35.492;-97.520;2022-12-20T01:21:24;97798.76;;;2.35;51.61
43480;BME280;29067;35.492;-97.520;2022-12-20T01:23:53;97806.46;;;1.49;52.05
43480;BME280;29067;35.492;-97.520;2022-12-20T01:26:24;97819.44;;;1.19;53.20
43480;BME280;29067;35.492;-97.520;2022-12-20T01:28:54;97820.55;;;1.29;53.34
43480;BME280;29067;35.492;-97.520;2022-12-20T01:31:23;97823.17;;;1.02;53.99
43480;BME280;29067;35.492;-97.520;2022-12-20T01:33:52;97830.54;;;0.73;54.76
43480;BME280;29067;35.492;-97.520;2022-12-20T01:36:22;97838.90;;;1.26;52.61
43480;BME280;29067;35.492;-97.520;2022-12-20T01:38:58;97846.21;;;0.41;55.22
43480;BME280;29067;35.492;-97.520;2022-12-20T01:41:28;97852.46;;;0.99;54.68
43480;BME280;29067;35.492;-97.520;2022-12-20T01:43:58;97859.83;;;1.64;53.76
43480;BME280;29067;35.492;-97.520;2022-12-20T01:46:28;97864.61;;;0.83;53.95
43480;BME280;29067;35.492;-97.520;2022-12-20T01:49:01;97871.11;;;0.95;54.01
43480;BME280;29067;35.492;-97.520;2022-12-20T01:51:35;97871.50;;;1.57;53.35
43480;BME280;29067;35.492;-97.520;2022-12-20T01:54:06;97873.33;;;1.62;52.74
43480;BME280;29067;35.492;-97.520;2022-12-20T01:56:37;97878.35;;;0.42;54.38
43480;BME280;29067;35.492;-97.520;2022-12-20T01:59:07;97880.46;;;-0.03;56.23
43480;BME280;29067;35.492;-97.520;2022-12-20T02:01:35;97885.32;;;0.13;55.66
43480;BME280;29067;35.492;-97.520;2022-12-20T02:04:03;97888.73;;;1.41;55.28
43480;BME280;29067;35.492;-97.520;2022-12-20T02:06:31;97899.38;;;1.16;54.95
43480;BME280;29067;35.492;-97.520;2022-12-20T02:09:00;97907.21;;;1.36;54.61
43480;BME280;29067;35.492;-97.520;2022-12-20T02:11:54;97912.89;;;0.97;54.59
43480;BME280;29067;35.492;-97.520;2022-12-20T02:14:35;97921.37;;;1.11;54.46
43480;BME280;29067;35.492;-97.520;2022-12-20T02:17:11;97931.21;;;1.22;55.05
43480;BME280;29067;35.492;-97.520;2022-12-20T02:19:59;97941.25;;;2.06;54.12
43480;BME280;29067;35.492;-97.520;2022-12-20T02:22:42;97944.70;;;1.58;53.05
43480;BME280;29067;35.492;-97.520;2022-12-20T02:25:25;97951.99;;;0.96;54.91
43480;BME280;29067;35.492;-97.520;2022-12-20T02:28:01;97950.52;;;1.54;54.18
43480;BME280;29067;35.492;-97.520;2022-12-20T02:30:37;97960.06;;;0.69;56.53
43480;BME280;29067;35.492;-97.520;2022-12-20T02:33:09;97966.75;;;1.09;55.03
43480;BME280;29067;35.492;-97.520;2022-12-20T02:35:39;97971.66;;;1.14;55.84
43480;BME280;29067;35.492;-97.520;2022-12-20T02:38:26;97976.22;;;1.01;56.46
43480;BME280;29067;35.492;-97.520;2022-12-20T02:40:58;97976.06;;;1.06;56.14
43480;BME280;29067;35.492;-97.520;2022-12-20T02:43:30;97979.40;;;0.56;57.82
43480;BME280;29067;35.492;-97.520;2022-12-20T02:45:59;97979.85;;;0.86;57.53
43480;BME280;29067;35.492;-97.520;2022-12-20T02:48:31;97979.90;;;0.68;58.21
43480;BME280;29067;35.492;-97.520;2022-12-20T02:51:02;97978.61;;;1.17;57.32
43480;BME280;29067;35.492;-97.520;2022-12-20T02:53:33;97974.48;;;1.02;57.41
43480;BME280;29067;35.492;-97.520;2022-12-20T02:56:04;97973.78;;;2.37;55.04
43480;BME280;29067;35.492;-97.520;2022-12-20T02:58:42;97981.13;;;2.25;54.89
43480;BME280;29067;35.492;-97.520;2022-12-20T03:01:15;97986.30;;;1.67;54.67
43480;BME280;29067;35.492;-97.520;2022-12-20T03:03:46;97986.96;;;1.51;55.06
43480;BME280;29067;35.492;-97.520;2022-12-20T03:06:16;97987.01;;;0.94;55.23
43480;BME280;29067;35.492;-97.520;2022-12-20T03:08:44;97990.18;;;1.51;56.62
43480;BME280;29067;35.492;-97.520;2022-12-20T03:11:12;97992.18;;;1.59;56.28
43480;BME280;29067;35.492;-97.520;2022-12-20T03:13:40;97991.90;;;0.44;58.00
43480;BME280;29067;35.492;-97.520;2022-12-20T03:16:08;97996.02;;;1.80;54.81
43480;BME280;29067;35.492;-97.520;2022-12-20T03:18:37;97999.48;;;3.02;53.50
43480;BME280;29067;35.492;-97.520;2022-12-20T03:21:05;97996.89;;;3.24;51.43
43480;BME280;29067;35.492;-97.520;2022-12-20T03:23:34;98000.25;;;3.03;52.66
43480;BME280;29067;35.492;-97.520;2022-12-20T03:26:02;98001.11;;;1.51;53.97
43480;BME280;29067;35.492;-97.520;2022-12-20T03:28:30;98003.60;;;2.78;53.69
43480;BME280;29067;35.492;-97.520;2022-12-20T03:30:58;98010.89;;;2.39;53.42
43480;BME280;29067;35.492;-97.520;2022-12-20T03:33:26;98015.56;;;3.74;50.93
43480;BME280;29067;35.492;-97.520;2022-12-20T03:35:54;98021.43;;;2.02;53.07
43480;BME280;29067;35.492;-97.520;2022-12-20T03:38:23;98027.51;;;2.46;52.57
43480;BME280;29067;35.492;-97.520;2022-12-20T03:40:50;98034.22;;;3.15;52.27
43480;BME280;29067;35.492;-97.520;2022-12-20T03:43:18;98032.22;;;3.02;51.35
43480;BME280;29067;35.492;-97.520;2022-12-20T03:45:46;98028.94;;;2.94;51.67
43480;BME280;29067;35.492;-97.520;2022-12-20T03:48:14;98038.52;;;2.17;53.99
43480;BME280;29067;35.492;-97.520;2022-12-20T03:50:42;98042.84;;;2.93;53.67
43480;BME280;29067;35.492;-97.520;2022-12-20T03:53:10;98051.55;;;1.45;55.25
43480;BME280;29067;35.492;-97.520;2022-12-20T03:55:38;98060.11;;;2.31;53.51
43480;BME280;29067;35.492;-97.520;2022-12-20T03:58:06;98057.02;;;2.58;53.87
43480;BME280;29067;35.492;-97.520;2022-12-20T04:00:34;98056.01;;;1.92;54.72
43480;BME280;29067;35.492;-97.520;2022-12-20T04:03:02;98061.09;;;1.77;55.47
43480;BME280;29067;35.492;-97.520;2022-12-20T04:05:30;98067.61;;;2.81;54.18
43480;BME280;29067;35.492;-97.520;2022-12-20T04:07:58;98064.06;;;1.12;56.48
43480;BME280;29067;35.492;-97.520;2022-12-20T04:10:26;98066.70;;;2.04;55.31
43480;BME280;29067;35.492;-97.520;2022-12-20T04:12:54;98068.97;;;2.37;55.01
43480;BME280;29067;35.492;-97.520;2022-12-20T04:15:22;98069.71;;;1.44;55.69
43480;BME280;29067;35.492;-97.520;2022-12-20T04:17:50;98068.18;;;2.31;54.39
43480;BME280;29067;35.492;-97.520;2022-12-20T04:20:18;98079.54;;;1.40;55.95
43480;BME280;29067;35.492;-97.520;2022-12-20T04:22:47;98091.08;;;0.99;56.82
43480;BME280;29067;35.492;-97.520;2022-12-20T04:25:18;98090.67;;;1.79;55.19
43480;BME280;29067;35.492;-97.520;2022-12-20T04:27:46;98091.59;;;1.99;55.41
43480;BME280;29067;35.492;-97.520;2022-12-20T04:30:14;98102.57;;;1.90;55.33
43480;BME280;29067;35.492;-97.520;2022-12-20T04:32:42;98105.58;;;1.76;55.74
43480;BME280;29067;35.492;-97.520;2022-12-20T04:35:11;98109.42;;;2.34;55.38
43480;BME280;29067;35.492;-97.520;2022-12-20T04:37:39;98116.03;;;2.36;54.44
43480;BME280;29067;35.492;-97.520;2022-12-20T04:40:08;98119.93;;;2.24;55.09
43480;BME280;29067;35.492;-97.520;2022-12-20T04:42:37;98120.25;;;1.70;55.64
43480;BME280;29067;35.492;-97.520;2022-12-20T04:45:05;98116.94;;;1.75;55.34
43480;BME280;29067;35.492;-97.520;2022-12-20T04:47:34;98112.28;;;2.15;54.16
43480;BME280;29067;35.492;-97.520;2022-12-20T04:50:02;98119.43;;;2.84;53.45
43480;BME280;29067;35.492;-97.520;2022-12-20T04:52:30;98116.25;;;3.84;51.03
43480;BME280;29067;35.492;-97.520;2022-12-20T04:54:58;98123.47;;;2.22;53.58
43480;BME280;29067;35.492;-97.520;2022-12-20T04:57:26;98128.19;;;2.93;52.75
43480;BME280;29067;35.492;-97.520;2022-12-20T04:59:53;98142.85;;;2.93;52.31
43480;BME280;29067;35.492;-97.520;2022-12-20T05:02:21;98147.98;;;2.58;52.62
43480;BME280;29067;35.492;-97.520;2022-12-20T05:04:49;98152.28;;;3.09;52.20
43480;BME280;29067;35.492;-97.520;2022-12-20T05:07:17;98152.39;;;3.88;50.79
43480;BME280;29067;35.492;-97.520;2022-12-20T05:09:45;98152.36;;;3.83;51.54
43480;BME280;29067;35.492;-97.520;2022-12-20T05:12:13;98153.98;;;4.07;49.68
43480;BME280;29067;35.492;-97.520;2022-12-20T05:14:41;98156.49;;;2.29;52.81
43480;BME280;29067;35.492;-97.520;2022-12-20T05:17:09;98145.98;;;3.87;50.32
43480;BME280;29067;35.492;-97.520;2022-12-20T05:19:37;98145.23;;;3.77;51.10
43480;BME280;29067;35.492;-97.520;2022-12-20T05:22:05;98157.45;;;5.37;48.95
43480;BME280;29067;35.492;-97.520;2022-12-20T05:24:33;98163.63;;;3.38;50.60
43480;BME280;29067;35.492;-97.520;2022-12-20T05:27:02;98164.52;;;4.60;49.51
43480;BME280;29067;35.492;-97.520;2022-12-20T05:29:30;98154.36;;;4.52;49.60
43480;BME280;29067;35.492;-97.520;2022-12-20T05:31:58;98154.79;;;4.00;49.68
43480;BME280;29067;35.492;-97.520;2022-12-20T05:34:26;98156.79;;;4.03;49.91
43480;BME280;29067;35.492;-97.520;2022-12-20T05:36:54;98148.56;;;3.29;50.99
43480;BME280;29067;35.492;-97.520;2022-12-20T05:39:22;98158.56;;;3.05;51.97
43480;BME280;29067;35.492;-97.520;2022-12-20T05:41:50;98163.21;;;2.16;53.24
43480;BME280;29067;35.492;-97.520;2022-12-20T05:44:18;98173.65;;;1.11;56.14
43480;BME280;29067;35.492;-97.520;2022-12-20T05:46:46;98171.74;;;3.40;52.04
43480;BME280;29067;35.492;-97.520;2022-12-20T05:49:14;98176.44;;;4.03;50.84
43480;BME280;29067;35.492;-97.520;2022-12-20T05:51:42;98175.58;;;4.13;50.27
43480;BME280;29067;35.492;-97.520;2022-12-20T05:54:10;98176.28;;;4.08;50.47
43480;BME280;29067;35.492;-97.520;2022-12-20T05:56:38;98179.84;;;2.95;51.67
43480;BME280;29067;35.492;-97.520;2022-12-20T05:59:06;98186.32;;;3.25;51.99
43480;BME280;29067;35.492;-97.520;2022-12-20T06:01:34;98186.60;;;5.40;48.90
43480;BME280;29067;35.492;-97.520;2022-12-20T06:04:01;98179.91;;;4.21;50.03
43480;BME280;29067;35.492;-97.520;2022-12-20T06:06:29;98186.64;;;3.51;50.30
43480;BME280;29067;35.492;-97.520;2022-12-20T06:08:57;98193.07;;;3.68;49.56
43480;BME280;29067;35.492;-97.520;2022-12-20T06:11:25;98187.03;;;5.04;49.06
43480;BME280;29067;35.492;-97.520;2022-12-20T06:13:53;98196.59;;;3.99;49.54
43480;BME280;29067;35.492;-97.520;2022-12-20T06:16:21;98197.67;;;4.85;48.42
43480;BME280;29067;35.492;-97.520;2022-12-20T06:18:49;98193.95;;;3.91;49.46
43480;BME280;29067;35.492;-97.520;2022-12-20T06:21:17;98196.42;;;3.69;50.23
43480;BME280;29067;35.492;-97.520;2022-12-20T06:23:45;98203.86;;;4.58;50.06
43480;BME280;29067;35.492;-97.520;2022-12-20T06:26:13;98201.11;;;5.10;48.28
43480;BME280;29067;35.492;-97.520;2022-12-20T06:28:42;98202.61;;;3.97;49.44
43480;BME280;29067;35.492;-97.520;2022-12-20T06:31:10;98210.71;;;4.67;50.31
43480;BME280;29067;35.492;-97.520;2022-12-20T06:33:38;98205.23;;;3.80;49.70
43480;BME280;29067;35.492;-97.520;2022-12-20T06:36:06;98207.36;;;3.89;49.56
43480;BME280;29067;35.492;-97.520;2022-12-20T06:38:35;98217.17;;;4.51;48.75
43480;BME280;29067;35.492;-97.520;2022-12-20T06:41:03;98213.69;;;4.49;47.93
43480;BME280;29067;35.492;-97.520;2022-12-20T06:43:30;98213.94;;;5.06;47.88
43480;BME280;29067;35.492;-97.520;2022-12-20T06:45:58;98219.23;;;4.72;48.52
43480;BME280;29067;35.492;-97.520;2022-12-20T06:48:26;98217.66;;;4.97;47.75
43480;BME280;29067;35.492;-97.520;2022-12-20T06:50:54;98220.41;;;5.06;47.40
43480;BME280;29067;35.492;-97.520;2022-12-20T06:53:22;98217.76;;;4.23;47.94
43480;BME280;29067;35.492;-97.520;2022-12-20T06:55:50;98213.69;;;3.28;50.34
43480;BME280;29067;35.492;-97.520;2022-12-20T06:58:19;98219.06;;;4.76;48.07
43480;BME280;29067;35.492;-97.520;2022-12-20T07:00:47;98221.44;;;5.10;46.86
43480;BME280;29067;35.492;-97.520;2022-12-20T07:03:15;98224.77;;;5.80;46.15
43480;BME280;29067;35.492;-97.520;2022-12-20T07:05:43;98230.46;;;4.18;48.93
43480;BME280;29067;35.492;-97.520;2022-12-20T07:08:11;98232.44;;;3.76;49.54
43480;BME280;29067;35.492;-97.520;2022-12-20T07:10:39;98232.42;;;4.89;48.21
43480;BME280;29067;35.492;-97.520;2022-12-20T07:13:07;98231.54;;;4.29;48.83
43480;BME280;29067;35.492;-97.520;2022-12-20T07:15:35;98233.01;;;3.83;49.98
43480;BME280;29067;35.492;-97.520;2022-12-20T07:18:03;98225.26;;;6.92;46.65
43480;BME280;29067;35.492;-97.520;2022-12-20T07:20:31;98227.44;;;5.99;45.91
43480;BME280;29067;35.492;-97.520;2022-12-20T07:22:58;98228.88;;;7.08;45.37
43480;BME280;29067;35.492;-97.520;2022-12-20T07:25:26;98239.53;;;5.23;46.79
43480;BME280;29067;35.492;-97.520;2022-12-20T07:27:55;98245.19;;;4.80;47.48
43480;BME280;29067;35.492;-97.520;2022-12-20T07:30:23;98249.37;;;4.84;47.27
43480;BME280;29067;35.492;-97.520;2022-12-20T07:32:52;98241.69;;;6.30;45.70
43480;BME280;29067;35.492;-97.520;2022-12-20T07:35:20;98249.66;;;4.96;46.59
43480;BME280;29067;35.492;-97.520;2022-12-20T07:37:47;98251.48;;;4.77;48.14
43480;BME280;29067;35.492;-97.520;2022-12-20T07:40:16;98257.89;;;5.16;47.12
43480;BME280;29067;35.492;-97.520;2022-12-20T07:42:43;98253.30;;;5.39;47.37
43480;BME280;29067;35.492;-97.520;2022-12-20T07:45:11;98248.60;;;6.76;45.08
43480;BME280;29067;35.492;-97.520;2022-12-20T07:47:39;98254.91;;;6.40;45.65
43480;BME280;29067;35.492;-97.520;2022-12-20T07:50:08;98263.58;;;5.41;46.70
43480;BME280;29067;35.492;-97.520;2022-12-20T07:52:37;98266.15;;;5.16;46.76
43480;BME280;29067;35.492;-97.520;2022-12-20T07:55:07;98263.14;;;6.42;45.26
43480;BME280;29067;35.492;-97.520;2022-12-20T07:57:37;98266.63;;;5.90;45.26
43480;BME280;29067;35.492;-97.520;2022-12-20T08:00:07;98265.04;;;6.34;45.10
43480;BME280;29067;35.492;-97.520;2022-12-20T08:02:38;98263.44;;;7.40;43.62
43480;BME280;29067;35.492;-97.520;2022-12-20T08:05:09;98275.51;;;6.34;45.09
43480;BME280;29067;35.492;-97.520;2022-12-20T08:07:39;98271.75;;;6.92;44.68
43480;BME280;29067;35.492;-97.520;2022-12-20T08:10:10;98266.05;;;6.91;43.85
43480;BME280;29067;35.492;-97.520;2022-12-20T08:12:39;98277.48;;;5.49;45.86
43480;BME280;29067;35.492;-97.520;2022-12-20T08:15:09;98282.64;;;5.29;46.43
43480;BME280;29067;35.492;-97.520;2022-12-20T08:17:37;98287.45;;;4.43;47.37
43480;BME280;29067;35.492;-97.520;2022-12-20T08:20:06;98292.55;;;6.06;46.00
43480;BME280;29067;35.492;-97.520;2022-12-20T08:22:35;98290.34;;;6.13;46.62
43480;BME280;29067;35.492;-97.520;2022-12-20T08:25:02;98285.15;;;4.51;47.65
43480;BME280;29067;35.492;-97.520;2022-12-20T08:27:30;98292.23;;;6.30;45.71
43480;BME280;29067;35.492;-97.520;2022-12-20T08:29:58;98303.07;;;6.40;45.63
43480;BME280;29067;35.492;-97.520;2022-12-20T08:32:27;98309.24;;;5.34;47.03
43480;BME280;29067;35.492;-97.520;2022-12-20T08:34:55;98312.14;;;5.40;47.51
43480;BME280;29067;35.492;-97.520;2022-12-20T08:37:23;98316.27;;;5.24;46.76
43480;BME280;29067;35.492;-97.520;2022-12-20T08:39:52;98318.97;;;5.41;47.50
43480;BME280;29067;35.492;-97.520;2022-12-20T08:42:20;98321.53;;;6.81;45.71
43480;BME280;29067;35.492;-97.520;2022-12-20T08:44:47;98315.60;;;7.13;45.33
43480;BME280;29067;35.492;-97.520;2022-12-20T08:47:15;98321.20;;;7.04;44.97
43480;BME280;29067;35.492;-97.520;2022-12-20T08:49:43;98325.94;;;6.37;45.68
43480;BME280;29067;35.492;-97.520;2022-12-20T08:52:11;98332.81;;;7.16;44.69
43480;BME280;29067;35.492;-97.520;2022-12-20T08:54:40;98334.68;;;7.14;45.06
43480;BME280;29067;35.492;-97.520;2022-12-20T08:57:08;98341.96;;;4.02;48.87
43480;BME280;29067;35.492;-97.520;2022-12-20T08:59:36;98351.44;;;2.49;51.58
43480;BME280;29067;35.492;-97.520;2022-12-20T09:02:04;98352.08;;;4.97;49.65
43480;BME280;29067;35.492;-97.520;2022-12-20T09:04:33;98350.83;;;4.03;50.13
43480;BME280;29067;35.492;-97.520;2022-12-20T09:07:01;98350.38;;;4.89;49.96
43480;BME280;29067;35.492;-97.520;2022-12-20T09:09:29;98348.36;;;5.13;49.97
43480;BME280;29067;35.492;-97.520;2022-12-20T09:11:57;98339.66;;;6.33;47.97
43480;BME280;29067;35.492;-97.520;2022-12-20T09:14:25;98333.27;;;4.43;50.38
43480;BME280;29067;35.492;-97.520;2022-12-20T09:16:53;98331.18;;;4.51;50.12
43480;BME280;29067;35.492;-97.520;2022-12-20T09:19:21;98336.27;;;4.07;50.77
43480;BME280;29067;35.492;-97.520;2022-12-20T09:21:49;98346.67;;;3.98;50.59
43480;BME280;29067;35.492;-97.520;2022-12-20T09:24:17;98355.63;;;3.61;50.85
43480;BME280;29067;35.492;-97.520;2022-12-20T09:26:45;98372.16;;;2.57;52.11
43480;BME280;29067;35.492;-97.520;2022-12-20T09:29:13;98386.48;;;2.55;53.08
43480;BME280;29067;35.492;-97.520;2022-12-20T09:31:41;98381.24;;;3.03;53.26
43480;BME280;29067;35.492;-97.520;2022-12-20T09:34:17;98384.74;;;1.82;55.24
43480;BME280;29067;35.492;-97.520;2022-12-20T09:36:45;98386.95;;;1.88;54.84
43480;BME280;29067;35.492;-97.520;2022-12-20T09:39:13;98398.12;;;1.68;55.18
43480;BME280;29067;35.492;-97.520;2022-12-20T09:41:51;98408.85;;;1.20;57.10
43480;BME280;29067;35.492;-97.520;2022-12-20T09:44:24;98404.54;;;2.28;55.25
43480;BME280;29067;35.492;-97.520;2022-12-20T09:46:55;98391.23;;;2.44;55.33
43480;BME280;29067;35.492;-97.520;2022-12-20T09:49:32;98389.77;;;1.81;55.37
43480;BME280;29067;35.492;-97.520;2022-12-20T09:52:15;98392.70;;;2.70;55.27
43480;BME280;29067;35.492;-97.520;2022-12-20T09:54:51;98390.17;;;1.71;56.49
43480;BME280;29067;35.492;-97.520;2022-12-20T09:57:28;98387.41;;;2.14;55.55
43480;BME280;29067;35.492;-97.520;2022-12-20T09:59:59;98384.37;;;2.14;54.61
43480;BME280;29067;35.492;-97.520;2022-12-20T10:02:29;98381.45;;;3.46;53.38
43480;BME280;29067;35.492;-97.520;2022-12-20T10:04:58;98380.93;;;2.20;54.83
43480;BME280;29067;35.492;-97.520;2022-12-20T10:07:36;98393.71;;;1.28;55.33
43480;BME280;29067;35.492;-97.520;2022-12-20T10:10:23;98391.51;;;2.49;53.90
43480;BME280;29067;35.492;-97.520;2022-12-20T10:13:01;98394.05;;;2.72;54.42
43480;BME280;29067;35.492;-97.520;2022-12-20T10:15:37;98402.78;;;1.55;56.12
43480;BME280;29067;35.492;-97.520;2022-12-20T10:18:20;98399.36;;;2.38;55.28
43480;BME280;29067;35.492;-97.520;2022-12-20T10:20:57;98399.24;;;2.94;53.74
43480;BME280;29067;35.492;-97.520;2022-12-20T10:23:32;98405.19;;;3.73;51.75
43480;BME280;29067;35.492;-97.520;2022-12-20T10:26:13;98412.54;;;2.84;53.81
43480;BME280;29067;35.492;-97.520;2022-12-20T10:28:41;98409.21;;;2.74;54.01
43480;BME280;29067;35.492;-97.520;2022-12-20T10:31:14;98402.36;;;2.64;52.54
43480;BME280;29067;35.492;-97.520;2022-12-20T10:33:48;98392.91;;;3.48;52.01
43480;BME280;29067;35.492;-97.520;2022-12-20T10:36:19;98392.61;;;3.75;51.42
43480;BME280;29067;35.492;-97.520;2022-12-20T10:38:55;98396.27;;;3.49;51.89
43480;BME280;29067;35.492;-97.520;2022-12-20T10:41:25;98412.72;;;2.42;53.80
43480;BME280;29067;35.492;-97.520;2022-12-20T10:43:59;98407.28;;;3.16;52.51
43480;BME280;29067;35.492;-97.520;2022-12-20T10:46:36;98408.87;;;2.08;54.30
43480;BME280;29067;35.492;-97.520;2022-12-20T10:49:28;98397.54;;;3.45;52.27
43480;BME280;29067;35.492;-97.520;2022-12-20T10:51:58;98403.93;;;2.53;53.88
43480;BME280;29067;35.492;-97.520;2022-12-20T10:54:31;98403.34;;;2.26;53.05
43480;BME280;29067;35.492;-97.520;2022-12-20T10:57:01;98417.23;;;1.98;54.62
43480;BME280;29067;35.492;-97.520;2022-12-20T10:59:32;98427.62;;;1.88;54.19
43480;BME280;29067;35.492;-97.520;2022-12-20T11:02:08;98430.70;;;2.49;53.63
43480;BME280;29067;35.492;-97.520;2022-12-20T11:04:57;98432.23;;;2.54;54.05
43480;BME280;29067;35.492;-97.520;2022-12-20T11:07:28;98438.09;;;1.00;56.81
43480;BME280;29067;35.492;-97.520;2022-12-20T11:09:58;98455.31;;;-0.39;60.38
43480;BME280;29067;35.492;-97.520;2022-12-20T11:12:26;98455.20;;;0.23;60.62
43480;BME280;29067;35.492;-97.520;2022-12-20T11:15:08;98456.47;;;-0.19;61.80
43480;BME280;29067;35.492;-97.520;2022-12-20T11:17:42;98470.81;;;-1.35;66.35
43480;BME280;29067;35.492;-97.520;2022-12-20T11:20:22;98485.20;;;-1.99;72.99
43480;BME280;29067;35.492;-97.520;2022-12-20T11:23:00;98496.32;;;-0.14;68.20
43480;BME280;29067;35.492;-97.520;2022-12-20T11:25:40;98502.46;;;-1.16;66.66
43480;BME280;29067;35.492;-97.520;2022-12-20T11:28:22;98515.42;;;-1.58;69.70
43480;BME280;29067;35.492;-97.520;2022-12-20T11:31:05;98523.92;;;-1.82;71.44
43480;BME280;29067;35.492;-97.520;2022-12-20T11:33:57;98532.92;;;-2.94;70.77
43480;BME280;29067;35.492;-97.520;2022-12-20T11:36:36;98543.55;;;-3.91;81.43
43480;BME280;29067;35.492;-97.520;2022-12-20T11:39:14;98547.52;;;-3.47;81.94
43480;BME280;29067;35.492;-97.520;2022-12-20T11:41:53;98551.05;;;-1.62;73.45
43480;BME280;29067;35.492;-97.520;2022-12-20T11:44:31;98548.39;;;-2.68;75.73
43480;BME280;29067;35.492;-97.520;2022-12-20T11:47:18;98550.17;;;-1.61;72.22
43480;BME280;29067;35.492;-97.520;2022-12-20T11:50:02;98561.65;;;-2.31;73.87
43480;BME280;29067;35.492;-97.520;2022-12-20T11:52:35;98560.99;;;-3.01;75.86
43480;BME280;29067;35.492;-97.520;2022-12-20T11:55:14;98562.64;;;-3.26;76.00
43480;BME280;29067;35.492;-97.520;2022-12-20T11:57:50;98567.88;;;-3.94;79.16
43480;BME280;29067;35.492;-97.520;2022-12-20T12:03:08;98589.07;;;-2.11;71.55
43480;BME280;29067;35.492;-97.520;2022-12-20T12:05:42;98592.20;;;-2.86;73.14
43480;BME280;29067;35.492;-97.520;2022-12-20T12:08:16;98590.08;;;-2.98;72.88
43480;BME280;29067;35.492;-97.520;2022-12-20T12:10:53;98609.03;;;-4.14;74.53
43480;BME280;29067;35.492;-97.520;2022-12-20T12:13:26;98628.96;;;-5.15;81.53
43480;BME280;29067;35.492;-97.520;2022-12-20T12:15:58;98633.92;;;-5.04;82.03
43480;BME280;29067;35.492;-97.520;2022-12-20T12:18:30;98641.83;;;-5.42;86.15
43480;BME280;29067;35.492;-97.520;2022-12-20T12:21:04;98631.29;;;-4.74;78.87
43480;BME280;29067;35.492;-97.520;2022-12-20T12:23:38;98636.69;;;-4.32;77.38
43480;BME280;29067;35.492;-97.520;2022-12-20T12:26:12;98639.31;;;-4.31;78.08
43480;BME280;29067;35.492;-97.520;2022-12-20T12:28:41;98651.21;;;-4.64;79.81
43480;BME280;29067;35.492;-97.520;2022-12-20T12:31:14;98663.89;;;-5.18;82.02
43480;BME280;29067;35.492;-97.520;2022-12-20T12:33:49;98667.93;;;-4.77;79.77
43480;BME280;29067;35.492;-97.520;2022-12-20T12:37:10;98667.32;;;-4.13;75.78
43480;BME280;29067;35.492;-97.520;2022-12-20T12:40:14;98679.11;;;-4.19;71.85
43480;BME280;29067;35.492;-97.520;2022-12-20T12:44:19;98688.16;;;-4.08;72.67
43480;BME280;29067;35.492;-97.520;2022-12-20T12:46:57;98683.71;;;-3.58;71.28
43480;BME280;29067;35.492;-97.520;2022-12-20T12:49:32;98683.16;;;-3.24;68.58
43480;BME280;29067;35.492;-97.520;2022-12-20T12:52:02;98681.60;;;-2.99;67.27
43480;BME280;29067;35.492;-97.520;2022-12-20T12:54:37;98683.39;;;-3.83;67.70
43480;BME280;29067;35.492;-97.520;2022-12-20T12:57:14;98698.41;;;-4.95;69.80
43480;BME280;29067;35.492;-97.520;2022-12-20T12:59:44;98698.98;;;-4.34;71.24
43480;BME280;29067;35.492;-97.520;2022-12-20T13:02:31;98702.10;;;-3.92;69.56
43480;BME280;29067;35.492;-97.520;2022-12-20T13:05:36;98714.69;;;-5.29;71.56
43480;BME280;29067;35.492;-97.520;2022-12-20T13:08:15;98718.98;;;-5.51;76.59
43480;BME280;29067;35.492;-97.520;2022-12-20T13:10:59;98722.03;;;-6.22;77.95
43480;BME280;29067;35.492;-97.520;2022-12-20T13:13:27;98729.18;;;-5.03;74.12